sensor_id;sensor_type;location;lat;lon;timestamp;pressure;altitude;pressure_sealevel;temperature;humidity
71559;BME280;59382;43.852;25.952;2023-01-28T00:01:44;100882.94;;;3.26;72.68
71559;BME280;59382;43.852;25.952;2023-01-28T00:04:10;100874.94;;;3.26;72.45
71559;BME280;59382;43.852;25.952;2023-01-28T00:06:35;100897.63;;;3.38;72.47
71559;BME280;59382;43.852;25.952;2023-01-28T00:09:02;100898.31;;;3.40;72.90
71559;BME280;59382;43.852;25.952;2023-01-28T00:11:28;100899.31;;;3.39;72.75
71559;BME280;59382;43.852;25.952;2023-01-28T00:13:54;100897.94;;;3.35;72.57
71559;BME280;59382;43.852;25.952;2023-01-28T00:16:20;100888.94;;;3.28;72.24
71559;BME280;59382;43.852;25.952;2023-01-28T00:18:51;100901.63;;;3.34;72.27
71559;BME280;59382;43.852;25.952;2023-01-28T00:21:17;100905.78;;;3.36;72.62
71559;BME280;59382;43.852;25.952;2023-01-28T00:23:50;100904.66;;;3.39;72.98
71559;BME280;59382;43.852;25.952;2023-01-28T00:26:17;100887.59;;;3.32;72.74
71559;BME280;59382;43.852;25.952;2023-01-28T00:28:43;100892.13;;;3.31;72.56
71559;BME280;59382;43.852;25.952;2023-01-28T00:31:15;100892.63;;;3.35;72.47
71559;BME280;59382;43.852;25.952;2023-01-28T00:33:44;100912.84;;;3.45;72.48
71559;BME280;59382;43.852;25.952;2023-01-28T00:36:12;100907.34;;;3.47;72.57
71559;BME280;59382;43.852;25.952;2023-01-28T00:38:37;100914.53;;;3.46;72.77
71559;BME280;59382;43.852;25.952;2023-01-28T00:41:11;100914.00;;;3.43;72.30
71559;BME280;59382;43.852;25.952;2023-01-28T00:43:37;100917.19;;;3.46;72.58
71559;BME280;59382;43.852;25.952;2023-01-28T00:46:04;100921.34;;;3.49;72.41
71559;BME280;59382;43.852;25.952;2023-01-28T00:48:32;100899.97;;;3.41;72.09
71559;BME280;59382;43.852;25.952;2023-01-28T00:50:57;100935.06;;;3.54;72.26
71559;BME280;59382;43.852;25.952;2023-01-28T00:53:23;100915.00;;;3.42;72.33
71559;BME280;59382;43.852;25.952;2023-01-28T00:55:49;100916.66;;;3.43;72.04
71559;BME280;59382;43.852;25.952;2023-01-28T00:58:15;100912.28;;;3.34;72.19
71559;BME280;59382;43.852;25.952;2023-01-28T01:00:40;100921.34;;;3.49;72.96
71559;BME280;59382;43.852;25.952;2023-01-28T01:03:06;100907.31;;;3.39;72.87
71559;BME280;59382;43.852;25.952;2023-01-28T01:05:31;100913.19;;;3.50;73.39
71559;BME280;59382;43.852;25.952;2023-01-28T01:07:58;100911.06;;;3.54;72.79
71559;BME280;59382;43.852;25.952;2023-01-28T01:10:24;100931.44;;;3.71;73.10
71559;BME280;59382;43.852;25.952;2023-01-28T01:12:50;100923.09;;;3.66;73.09
71559;BME280;59382;43.852;25.952;2023-01-28T01:15:17;100915.09;;;3.66;72.72
71559;BME280;59382;43.852;25.952;2023-01-28T01:17:47;100927.44;;;3.75;72.64
71559;BME280;59382;43.852;25.952;2023-01-28T01:22:43;100934.44;;;3.68;71.88
71559;BME280;59382;43.852;25.952;2023-01-28T01:25:10;100926.75;;;3.57;72.09
71559;BME280;59382;43.852;25.952;2023-01-28T01:27:37;100936.09;;;3.61;71.87
71559;BME280;59382;43.852;25.952;2023-01-28T01:30:02;100895.94;;;3.29;72.10
71559;BME280;59382;43.852;25.952;2023-01-28T01:32:30;100935.06;;;3.54;72.13
71559;BME280;59382;43.852;25.952;2023-01-28T01:34:55;100942.69;;;3.49;71.91
71559;BME280;59382;43.852;25.952;2023-01-28T01:37:21;100938.84;;;3.43;71.85
71559;BME280;59382;43.852;25.952;2023-01-28T01:39:46;100944.50;;;3.40;71.55
71559;BME280;59382;43.852;25.952;2023-01-28T01:42:13;100947.66;;;3.36;71.99
71559;BME280;59382;43.852;25.952;2023-01-28T01:47:17;100940.56;;;3.19;71.32
71559;BME280;59382;43.852;25.952;2023-01-28T01:49:43;100949.56;;;3.18;72.13
71559;BME280;59382;43.852;25.952;2023-01-28T01:52:15;100951.22;;;3.19;71.95
71559;BME280;59382;43.852;25.952;2023-01-28T01:54:46;100961.88;;;3.19;71.90
71559;BME280;59382;43.852;25.952;2023-01-28T01:57:19;100958.56;;;3.17;71.99
71559;BME280;59382;43.852;25.952;2023-01-28T01:59:46;100955.69;;;3.10;72.10
71559;BME280;59382;43.852;25.952;2023-01-28T02:02:12;100956.47;;;3.03;72.08
71559;BME280;59382;43.852;25.952;2023-01-28T02:04:40;100946.66;;;3.03;72.44
71559;BME280;59382;43.852;25.952;2023-01-28T02:07:08;100962.50;;;3.13;71.93
71559;BME280;59382;43.852;25.952;2023-01-28T02:09:35;100969.84;;;3.11;72.01
71559;BME280;59382;43.852;25.952;2023-01-28T02:12:34;100972.03;;;3.15;71.83
71559;BME280;59382;43.852;25.952;2023-01-28T02:15:04;100964.84;;;3.08;72.27
71559;BME280;59382;43.852;25.952;2023-01-28T02:17:31;100959.13;;;3.03;71.85
71559;BME280;59382;43.852;25.952;2023-01-28T02:20:07;100965.16;;;3.05;71.97
71559;BME280;59382;43.852;25.952;2023-01-28T02:28:10;100982.81;;;3.06;71.85
71559;BME280;59382;43.852;25.952;2023-01-28T02:30:41;100983.13;;;3.03;71.95
71559;BME280;59382;43.852;25.952;2023-01-28T02:33:22;100978.72;;;2.94;72.03
71559;BME280;59382;43.852;25.952;2023-01-28T02:35:53;100986.41;;;2.97;72.08
71559;BME280;59382;43.852;25.952;2023-01-28T02:38:25;100992.44;;;2.99;72.25
71559;BME280;59382;43.852;25.952;2023-01-28T02:41:00;100965.47;;;2.84;72.22
71559;BME280;59382;43.852;25.952;2023-01-28T02:43:41;100978.50;;;2.87;72.76
71559;BME280;59382;43.852;25.952;2023-01-28T02:49:07;100988.22;;;2.96;72.16
71559;BME280;59382;43.852;25.952;2023-01-28T02:51:49;100957.28;;;2.78;71.88
71559;BME280;59382;43.852;25.952;2023-01-28T02:57:31;100990.88;;;2.96;72.16
71559;BME280;59382;43.852;25.952;2023-01-28T03:00:18;100990.38;;;2.93;71.95
71559;BME280;59382;43.852;25.952;2023-01-28T03:05:37;100976.53;;;2.89;72.19
71559;BME280;59382;43.852;25.952;2023-01-28T03:08:06;100974.31;;;2.85;72.19
71559;BME280;59382;43.852;25.952;2023-01-28T03:10:54;100967.63;;;2.81;72.39
71559;BME280;59382;43.852;25.952;2023-01-28T03:13:41;100962.63;;;2.78;72.34
71559;BME280;59382;43.852;25.952;2023-01-28T03:16:27;100993.56;;;2.96;72.43
71559;BME280;59382;43.852;25.952;2023-01-28T03:19:13;100992.75;;;2.96;72.53
71559;BME280;59382;43.852;25.952;2023-01-28T03:21:57;100984.06;;;2.94;72.58
71559;BME280;59382;43.852;25.952;2023-01-28T03:24:47;101004.81;;;3.08;71.79
71559;BME280;59382;43.852;25.952;2023-01-28T03:30:29;101010.50;;;3.13;72.38
71559;BME280;59382;43.852;25.952;2023-01-28T03:33:17;100988.13;;;3.06;72.17
71559;BME280;59382;43.852;25.952;2023-01-28T03:36:02;100996.19;;;3.14;71.77
71559;BME280;59382;43.852;25.952;2023-01-28T03:38:47;101014.13;;;3.29;72.32
71559;BME280;59382;43.852;25.952;2023-01-28T03:41:20;100993.94;;;3.27;71.92
71559;BME280;59382;43.852;25.952;2023-01-28T03:43:45;101007.69;;;3.40;71.68
71559;BME280;59382;43.852;25.952;2023-01-28T03:46:12;100989.63;;;3.34;72.52
71559;BME280;59382;43.852;25.952;2023-01-28T03:48:37;101001.88;;;3.44;72.53
71559;BME280;59382;43.852;25.952;2023-01-28T03:51:03;100982.66;;;3.41;72.33
71559;BME280;59382;43.852;25.952;2023-01-28T03:53:28;101009.44;;;3.57;72.38
71559;BME280;59382;43.852;25.952;2023-01-28T03:55:54;101005.09;;;3.56;71.99
71559;BME280;59382;43.852;25.952;2023-01-28T03:58:23;101017.47;;;3.65;72.19
71559;BME280;59382;43.852;25.952;2023-01-28T04:01:11;101019.81;;;3.68;72.30
71559;BME280;59382;43.852;25.952;2023-01-28T04:03:37;101018.53;;;3.72;71.95
71559;BME280;59382;43.852;25.952;2023-01-28T04:06:06;101007.50;;;3.67;71.54
71559;BME280;59382;43.852;25.952;2023-01-28T04:08:32;101011.19;;;3.74;72.03
71559;BME280;59382;43.852;25.952;2023-01-28T04:10:58;101003.34;;;3.72;71.39
71559;BME280;59382;43.852;25.952;2023-01-28T04:13:40;101021.09;;;3.89;72.17
71559;BME280;59382;43.852;25.952;2023-01-28T04:16:06;101027.63;;;3.95;72.11
71559;BME280;59382;43.852;25.952;2023-01-28T04:18:33;101028.31;;;3.97;71.85
71559;BME280;59382;43.852;25.952;2023-01-28T04:20:58;101036.63;;;3.94;71.65
71559;BME280;59382;43.852;25.952;2023-01-28T04:23:24;101022.88;;;3.81;71.77
71559;BME280;59382;43.852;25.952;2023-01-28T04:25:49;101034.09;;;3.84;71.83
71559;BME280;59382;43.852;25.952;2023-01-28T04:28:15;101031.91;;;3.80;71.19
71559;BME280;59382;43.852;25.952;2023-01-28T04:30:41;101034.19;;;3.75;71.77
71559;BME280;59382;43.852;25.952;2023-01-28T04:33:06;101031.91;;;3.80;71.82
71559;BME280;59382;43.852;25.952;2023-01-28T04:35:32;101027.19;;;3.74;71.23
71559;BME280;59382;43.852;25.952;2023-01-28T04:37:57;101018.84;;;3.69;71.62
71559;BME280;59382;43.852;25.952;2023-01-28T04:40:24;101033.38;;;3.74;71.54
71559;BME280;59382;43.852;25.952;2023-01-28T04:42:53;101029.53;;;3.69;71.12
71559;BME280;59382;43.852;25.952;2023-01-28T04:45:19;101041.53;;;3.73;71.09
71559;BME280;59382;43.852;25.952;2023-01-28T04:47:45;101023.97;;;3.62;71.95
71559;BME280;59382;43.852;25.952;2023-01-28T04:50:10;101031.69;;;3.73;71.16
71559;BME280;59382;43.852;25.952;2023-01-28T04:52:36;101041.53;;;3.73;71.04
71559;BME280;59382;43.852;25.952;2023-01-28T04:55:01;101038.19;;;3.71;70.68
71559;BME280;59382;43.852;25.952;2023-01-28T04:57:27;101038.19;;;3.71;71.88
71559;BME280;59382;43.852;25.952;2023-01-28T04:59:53;101043.53;;;3.71;71.11
71559;BME280;59382;43.852;25.952;2023-01-28T05:02:18;101030.81;;;3.65;71.60
71559;BME280;59382;43.852;25.952;2023-01-28T05:04:44;101029.09;;;3.56;71.42
71559;BME280;59382;43.852;25.952;2023-01-28T05:07:10;101029.41;;;3.53;71.34
71559;BME280;59382;43.852;25.952;2023-01-28T05:09:35;101043.44;;;3.55;71.66
71559;BME280;59382;43.852;25.952;2023-01-28T05:12:01;101044.94;;;3.49;70.76
71559;BME280;59382;43.852;25.952;2023-01-28T05:14:27;101050.03;;;3.43;70.71
71559;BME280;59382;43.852;25.952;2023-01-28T05:16:52;101027.91;;;3.25;71.27
71559;BME280;59382;43.852;25.952;2023-01-28T05:19:18;101044.31;;;3.30;71.35
71559;BME280;59382;43.852;25.952;2023-01-28T05:21:43;101030.19;;;3.12;71.31
71559;BME280;59382;43.852;25.952;2023-01-28T05:24:09;101024.16;;;3.10;71.22
71559;BME280;59382;43.852;25.952;2023-01-28T05:26:34;101043.34;;;3.13;71.10
71559;BME280;59382;43.852;25.952;2023-01-28T05:29:02;101056.00;;;3.11;71.62
71559;BME280;59382;43.852;25.952;2023-01-28T05:31:27;101059.66;;;3.10;71.44
71559;BME280;59382;43.852;25.952;2023-01-28T05:33:53;101059.13;;;3.07;71.87
71559;BME280;59382;43.852;25.952;2023-01-28T05:36:18;101063.00;;;3.12;71.65
71559;BME280;59382;43.852;25.952;2023-01-28T05:38:44;101074.50;;;3.13;72.05
71559;BME280;59382;43.852;25.952;2023-01-28T05:41:09;101061.84;;;3.15;71.70
71559;BME280;59382;43.852;25.952;2023-01-28T05:43:36;101059.13;;;3.07;71.04
71559;BME280;59382;43.852;25.952;2023-01-28T05:46:02;101076.69;;;3.17;71.07
71559;BME280;59382;43.852;25.952;2023-01-28T05:48:28;101082.03;;;3.17;71.71
71559;BME280;59382;43.852;25.952;2023-01-28T05:50:53;101074.34;;;3.14;71.53
71559;BME280;59382;43.852;25.952;2023-01-28T05:53:19;101089.88;;;3.19;71.09
71559;BME280;59382;43.852;25.952;2023-01-28T05:55:49;101080.91;;;3.20;71.00
71559;BME280;59382;43.852;25.952;2023-01-28T05:58:16;101084.78;;;3.25;71.20
71559;BME280;59382;43.852;25.952;2023-01-28T06:00:41;101098.47;;;3.30;71.64
71559;BME280;59382;43.852;25.952;2023-01-28T06:03:07;101098.47;;;3.30;71.31
71559;BME280;59382;43.852;25.952;2023-01-28T06:05:33;101093.13;;;3.30;71.44
71559;BME280;59382;43.852;25.952;2023-01-28T06:07:58;101075.09;;;3.24;71.03
71559;BME280;59382;43.852;25.952;2023-01-28T06:10:24;101103.72;;;3.40;71.20
71559;BME280;59382;43.852;25.952;2023-01-28T06:12:49;101099.72;;;3.44;71.34
71559;BME280;59382;43.852;25.952;2023-01-28T06:15:15;101094.22;;;3.45;71.12
71559;BME280;59382;43.852;25.952;2023-01-28T06:17:41;101094.06;;;3.47;71.50
71559;BME280;59382;43.852;25.952;2023-01-28T06:20:07;101079.84;;;3.38;70.84
71559;BME280;59382;43.852;25.952;2023-01-28T06:22:35;101098.13;;;3.51;70.68
71559;BME280;59382;43.852;25.952;2023-01-28T06:25:01;101070.66;;;3.33;71.19
71559;BME280;59382;43.852;25.952;2023-01-28T06:27:27;101092.41;;;3.46;70.58
71559;BME280;59382;43.852;25.952;2023-01-28T06:29:52;101098.44;;;3.48;71.28
71559;BME280;59382;43.852;25.952;2023-01-28T06:32:18;101104.28;;;3.51;70.87
71559;BME280;59382;43.852;25.952;2023-01-28T06:34:44;101108.19;;;3.57;70.82
71559;BME280;59382;43.852;25.952;2023-01-28T06:37:12;101113.13;;;3.52;70.42
71559;BME280;59382;43.852;25.952;2023-01-28T06:39:37;101106.94;;;3.51;71.18
71559;BME280;59382;43.852;25.952;2023-01-28T06:42:03;101120.13;;;3.53;70.77
71559;BME280;59382;43.852;25.952;2023-01-28T06:44:28;101123.88;;;3.60;70.66
71559;BME280;59382;43.852;25.952;2023-01-28T06:46:54;101112.81;;;3.55;70.47
71559;BME280;59382;43.852;25.952;2023-01-28T06:49:20;101127.56;;;3.67;70.66
71559;BME280;59382;43.852;25.952;2023-01-28T06:51:46;101129.25;;;3.68;70.71
71559;BME280;59382;43.852;25.952;2023-01-28T06:54:12;101129.25;;;3.68;71.09
71559;BME280;59382;43.852;25.952;2023-01-28T06:56:37;101149.34;;;3.80;70.82
71559;BME280;59382;43.852;25.952;2023-01-28T06:59:03;101150.69;;;3.84;70.27
71559;BME280;59382;43.852;25.952;2023-01-28T07:01:28;101141.19;;;3.81;71.20
71559;BME280;59382;43.852;25.952;2023-01-28T07:03:54;101160.09;;;3.96;71.09
71559;BME280;59382;43.852;25.952;2023-01-28T07:06:20;101164.50;;;4.05;70.67
71559;BME280;59382;43.852;25.952;2023-01-28T07:08:46;101149.50;;;4.04;71.05
71559;BME280;59382;43.852;25.952;2023-01-28T07:11:11;101170.28;;;4.18;70.77
71559;BME280;59382;43.852;25.952;2023-01-28T07:13:37;101180.81;;;4.28;70.82
71559;BME280;59382;43.852;25.952;2023-01-28T07:16:03;101160.94;;;4.22;70.82
71559;BME280;59382;43.852;25.952;2023-01-28T07:18:29;101161.97;;;4.29;71.02
71559;BME280;59382;43.852;25.952;2023-01-28T07:20:54;101176.72;;;4.41;70.54
71559;BME280;59382;43.852;25.952;2023-01-28T07:23:20;101182.25;;;4.48;70.64
71559;BME280;59382;43.852;25.952;2023-01-28T07:25:46;101182.75;;;4.51;70.95
71559;BME280;59382;43.852;25.952;2023-01-28T07:28:11;101187.63;;;4.56;70.26
71559;BME280;59382;43.852;25.952;2023-01-28T07:30:37;101179.09;;;4.52;70.47
71559;BME280;59382;43.852;25.952;2023-01-28T07:33:02;101184.13;;;4.55;70.30
71559;BME280;59382;43.852;25.952;2023-01-28T07:35:28;101202.84;;;4.63;70.38
71559;BME280;59382;43.852;25.952;2023-01-28T07:37:59;101206.22;;;4.65;70.44
71559;BME280;59382;43.852;25.952;2023-01-28T07:40:25;101200.34;;;4.62;70.60
71559;BME280;59382;43.852;25.952;2023-01-28T07:42:51;101204.19;;;4.67;69.84
71559;BME280;59382;43.852;25.952;2023-01-28T07:45:19;101214.06;;;4.75;70.69
71559;BME280;59382;43.852;25.952;2023-01-28T07:47:53;101209.91;;;4.72;69.96
71559;BME280;59382;43.852;25.952;2023-01-28T07:50:19;101206.84;;;4.59;70.53
71559;BME280;59382;43.852;25.952;2023-01-28T07:52:44;101206.84;;;4.59;70.96
71559;BME280;59382;43.852;25.952;2023-01-28T07:55:10;101216.22;;;4.63;70.53
71559;BME280;59382;43.852;25.952;2023-01-28T07:57:56;101217.41;;;4.69;70.95
71559;BME280;59382;43.852;25.952;2023-01-28T08:00:23;101210.06;;;4.71;69.77
71559;BME280;59382;43.852;25.952;2023-01-28T08:02:49;101207.06;;;4.66;70.31
71559;BME280;59382;43.852;25.952;2023-01-28T08:05:19;101218.94;;;4.79;69.75
71559;BME280;59382;43.852;25.952;2023-01-28T08:07:45;101226.63;;;4.82;70.05
71559;BME280;59382;43.852;25.952;2023-01-28T08:10:13;101197.53;;;4.71;70.35
71559;BME280;59382;43.852;25.952;2023-01-28T08:12:39;101216.94;;;4.81;69.43
71559;BME280;59382;43.852;25.952;2023-01-28T08:15:05;101222.50;;;4.88;69.87
71559;BME280;59382;43.852;25.952;2023-01-28T08:17:31;101199.91;;;4.74;69.69
71559;BME280;59382;43.852;25.952;2023-01-28T08:19:57;101231.00;;;4.83;69.37
71559;BME280;59382;43.852;25.952;2023-01-28T08:22:26;101229.63;;;4.79;69.70
71559;BME280;59382;43.852;25.952;2023-01-28T08:24:51;101231.34;;;4.80;69.72
71559;BME280;59382;43.852;25.952;2023-01-28T08:27:17;101230.31;;;4.81;69.70
71559;BME280;59382;43.852;25.952;2023-01-28T08:29:43;101229.63;;;4.79;70.11
71559;BME280;59382;43.852;25.952;2023-01-28T08:32:09;101229.47;;;4.73;69.33
71559;BME280;59382;43.852;25.952;2023-01-28T08:34:35;101236.94;;;4.69;70.19
71559;BME280;59382;43.852;25.952;2023-01-28T08:37:00;101221.53;;;4.55;69.95
71559;BME280;59382;43.852;25.952;2023-01-28T08:39:26;101243.47;;;4.67;69.85
71559;BME280;59382;43.852;25.952;2023-01-28T08:41:51;101231.53;;;4.53;70.50
71559;BME280;59382;43.852;25.952;2023-01-28T08:44:17;101256.31;;;4.63;69.64
71559;BME280;59382;43.852;25.952;2023-01-28T08:46:42;101228.56;;;4.56;69.96
71559;BME280;59382;43.852;25.952;2023-01-28T08:49:08;101241.28;;;4.70;70.24
71559;BME280;59382;43.852;25.952;2023-01-28T08:51:33;101241.81;;;4.74;70.50
71559;BME280;59382;43.852;25.952;2023-01-28T08:53:59;101243.47;;;4.75;69.79
71559;BME280;59382;43.852;25.952;2023-01-28T08:56:26;101248.34;;;4.71;70.35
71559;BME280;59382;43.852;25.952;2023-01-28T08:58:51;101226.25;;;4.61;69.81
71559;BME280;59382;43.852;25.952;2023-01-28T09:01:17;101238.59;;;4.62;70.54
71559;BME280;59382;43.852;25.952;2023-01-28T09:03:42;101241.63;;;4.67;69.40
71559;BME280;59382;43.852;25.952;2023-01-28T09:06:08;101248.34;;;4.71;69.57
71559;BME280;59382;43.852;25.952;2023-01-28T09:08:33;101238.59;;;4.62;69.99
71559;BME280;59382;43.852;25.952;2023-01-28T09:10:59;101250.00;;;4.72;70.50
71559;BME280;59382;43.852;25.952;2023-01-28T09:13:25;101256.69;;;4.76;69.76
71559;BME280;59382;43.852;25.952;2023-01-28T09:15:51;101258.38;;;4.77;70.08
71559;BME280;59382;43.852;25.952;2023-01-28T09:18:17;101231.78;;;4.68;69.82
71559;BME280;59382;43.852;25.952;2023-01-28T09:20:43;101248.34;;;4.71;69.37
71559;BME280;59382;43.852;25.952;2023-01-28T09:23:09;101250.63;;;4.66;70.10
71559;BME280;59382;43.852;25.952;2023-01-28T09:25:35;101248.97;;;4.65;70.24
71559;BME280;59382;43.852;25.952;2023-01-28T09:28:01;101233.91;;;4.56;70.59
71559;BME280;59382;43.852;25.952;2023-01-28T09:30:27;101233.91;;;4.56;69.98
71559;BME280;59382;43.852;25.952;2023-01-28T09:32:54;101239.25;;;4.56;69.86
71559;BME280;59382;43.852;25.952;2023-01-28T09:35:20;101240.69;;;4.43;70.27
71559;BME280;59382;43.852;25.952;2023-01-28T09:37:46;101234.16;;;4.37;70.70
71559;BME280;59382;43.852;25.952;2023-01-28T09:40:24;101231.78;;;4.34;69.70
71559;BME280;59382;43.852;25.952;2023-01-28T09:43:11;101243.34;;;4.43;70.15
71559;BME280;59382;43.852;25.952;2023-01-28T09:45:47;101236.13;;;4.35;70.41
71559;BME280;59382;43.852;25.952;2023-01-28T09:48:24;101244.78;;;4.29;70.27
71559;BME280;59382;43.852;25.952;2023-01-28T09:50:55;101234.38;;;4.18;70.47
71559;BME280;59382;43.852;25.952;2023-01-28T09:53:27;101259.06;;;4.20;70.66
71559;BME280;59382;43.852;25.952;2023-01-28T09:55:59;101252.06;;;4.19;70.62
71559;BME280;59382;43.852;25.952;2023-01-28T09:58:25;101230.00;;;4.17;70.49
71559;BME280;59382;43.852;25.952;2023-01-28T10:00:59;101247.97;;;4.33;70.35
71559;BME280;59382;43.852;25.952;2023-01-28T10:03:50;101253.81;;;4.36;70.26
71559;BME280;59382;43.852;25.952;2023-01-28T10:06:23;101264.50;;;4.36;70.45
71559;BME280;59382;43.852;25.952;2023-01-28T10:09:10;101260.88;;;4.37;70.82
71559;BME280;59382;43.852;25.952;2023-01-28T10:14:19;101260.06;;;4.45;70.58
71559;BME280;59382;43.852;25.952;2023-01-28T10:17:10;101260.53;;;4.40;70.42
71559;BME280;59382;43.852;25.952;2023-01-28T10:19:47;101267.25;;;4.44;69.87
71559;BME280;59382;43.852;25.952;2023-01-28T10:22:19;101272.91;;;4.41;70.13
71559;BME280;59382;43.852;25.952;2023-01-28T10:24:55;101262.53;;;4.38;70.62
71559;BME280;59382;43.852;25.952;2023-01-28T10:27:29;101255.53;;;4.37;70.71
71559;BME280;59382;43.852;25.952;2023-01-28T10:29:58;101251.84;;;4.38;70.07
71559;BME280;59382;43.852;25.952;2023-01-28T10:32:32;101248.59;;;4.27;70.63
71559;BME280;59382;43.852;25.952;2023-01-28T10:35:01;101250.06;;;4.21;70.39
71559;BME280;59382;43.852;25.952;2023-01-28T10:37:30;101266.47;;;4.26;70.34
71559;BME280;59382;43.852;25.952;2023-01-28T10:39:59;101265.25;;;4.21;70.87
71559;BME280;59382;43.852;25.952;2023-01-28T10:44:56;101255.47;;;4.29;70.59
71559;BME280;59382;43.852;25.952;2023-01-28T10:47:31;101251.13;;;4.28;70.41
71559;BME280;59382;43.852;25.952;2023-01-28T10:49:58;101268.09;;;4.45;70.41
71559;BME280;59382;43.852;25.952;2023-01-28T10:52:25;101268.72;;;4.39;70.39
71559;BME280;59382;43.852;25.952;2023-01-28T10:55:04;101250.44;;;4.26;70.26
71559;BME280;59382;43.852;25.952;2023-01-28T10:57:32;101279.19;;;4.32;71.08
71559;BME280;59382;43.852;25.952;2023-01-28T11:02:42;101261.41;;;4.15;70.54
71559;BME280;59382;43.852;25.952;2023-01-28T11:05:24;101268.09;;;4.19;70.76
71559;BME280;59382;43.852;25.952;2023-01-28T11:08:15;101262.16;;;4.33;70.98
71559;BME280;59382;43.852;25.952;2023-01-28T11:10:42;101262.13;;;4.25;70.55
71559;BME280;59382;43.852;25.952;2023-01-28T11:15:49;101241.69;;;4.16;70.69
71559;BME280;59382;43.852;25.952;2023-01-28T11:18:25;101267.81;;;4.30;70.59
71559;BME280;59382;43.852;25.952;2023-01-28T11:20:56;101268.81;;;4.29;70.64
71559;BME280;59382;43.852;25.952;2023-01-28T11:23:27;101265.44;;;4.27;70.75
71559;BME280;59382;43.852;25.952;2023-01-28T11:26:20;101280.44;;;4.20;70.08
71559;BME280;59382;43.852;25.952;2023-01-28T11:28:47;101261.72;;;4.12;70.69
71559;BME280;59382;43.852;25.952;2023-01-28T11:31:16;101265.88;;;4.15;70.91
71559;BME280;59382;43.852;25.952;2023-01-28T11:33:56;101253.22;;;4.17;70.66
71559;BME280;59382;43.852;25.952;2023-01-28T11:39:01;101251.03;;;4.12;71.08
71559;BME280;59382;43.852;25.952;2023-01-28T11:41:33;101251.03;;;4.12;70.90
71559;BME280;59382;43.852;25.952;2023-01-28T11:44:07;101238.66;;;4.11;70.99
71559;BME280;59382;43.852;25.952;2023-01-28T11:57:39;101237.69;;;4.20;70.96
71559;BME280;59382;43.852;25.952;2023-01-28T12:01:00;101249.56;;;4.18;71.30
71559;BME280;59382;43.852;25.952;2023-01-28T12:03:42;101242.03;;;4.21;71.13
71559;BME280;59382;43.852;25.952;2023-01-28T12:08:56;101229.03;;;4.18;70.87
71559;BME280;59382;43.852;25.952;2023-01-28T12:11:41;101249.09;;;4.30;70.78
71559;BME280;59382;43.852;25.952;2023-01-28T12:33:52;101239.13;;;4.06;71.48
71559;BME280;59382;43.852;25.952;2023-01-28T12:36:51;101239.91;;;3.99;70.63
71559;BME280;59382;43.852;25.952;2023-01-28T12:42:13;101229.09;;;3.83;71.62
71559;BME280;59382;43.852;25.952;2023-01-28T12:44:47;101228.19;;;3.92;71.53
71559;BME280;59382;43.852;25.952;2023-01-28T12:47:18;101230.69;;;3.93;71.35
71559;BME280;59382;43.852;25.952;2023-01-28T12:49:53;101256.31;;;4.04;70.84
71559;BME280;59382;43.852;25.952;2023-01-28T12:52:24;101255.28;;;4.05;71.21
71559;BME280;59382;43.852;25.952;2023-01-28T12:55:13;101241.44;;;4.01;71.02
71559;BME280;59382;43.852;25.952;2023-01-28T12:57:40;101260.56;;;4.15;71.29
71559;BME280;59382;43.852;25.952;2023-01-28T13:00:24;101258.34;;;4.10;71.21
71559;BME280;59382;43.852;25.952;2023-01-28T13:05:52;101253.31;;;4.07;70.66
71559;BME280;59382;43.852;25.952;2023-01-28T13:08:25;101270.75;;;4.19;70.71
71559;BME280;59382;43.852;25.952;2023-01-28T13:10:52;101262.34;;;4.06;71.02
71559;BME280;59382;43.852;25.952;2023-01-28T13:16:00;101271.22;;;4.15;70.90
71559;BME280;59382;43.852;25.952;2023-01-28T13:24:05;101272.81;;;4.25;71.37
71559;BME280;59382;43.852;25.952;2023-01-28T13:31:50;101269.75;;;4.20;70.97
71559;BME280;59382;43.852;25.952;2023-01-28T13:34:35;101272.09;;;4.15;70.60
71559;BME280;59382;43.852;25.952;2023-01-28T13:37:14;101251.97;;;4.03;71.26
71559;BME280;59382;43.852;25.952;2023-01-28T13:39:50;101257.66;;;4.08;71.16
71559;BME280;59382;43.852;25.952;2023-01-28T13:44:49;101271.66;;;4.28;71.15
71559;BME280;59382;43.852;25.952;2023-01-28T13:47:26;101282.25;;;4.37;71.45
71559;BME280;59382;43.852;25.952;2023-01-28T13:49:56;101284.22;;;4.35;70.70
71559;BME280;59382;43.852;25.952;2023-01-28T14:18:55;101291.00;;;4.04;71.55
71559;BME280;59382;43.852;25.952;2023-01-28T14:21:26;101288.50;;;4.02;72.09
71559;BME280;59382;43.852;25.952;2023-01-28T14:23:54;101286.59;;;3.95;71.91
71559;BME280;59382;43.852;25.952;2023-01-28T14:31:42;101301.38;;;4.07;72.03
71559;BME280;59382;43.852;25.952;2023-01-28T14:34:18;101306.81;;;4.15;71.74
71559;BME280;59382;43.852;25.952;2023-01-28T14:36:45;101294.06;;;4.09;71.61
71559;BME280;59382;43.852;25.952;2023-01-28T14:39:22;101307.47;;;4.17;71.87
71559;BME280;59382;43.852;25.952;2023-01-28T14:41:51;101312.81;;;4.17;71.60
71559;BME280;59382;43.852;25.952;2023-01-28T14:47:00;101314.50;;;4.18;72.37
71559;BME280;59382;43.852;25.952;2023-01-28T14:55:28;101307.03;;;4.04;71.97
71559;BME280;59382;43.852;25.952;2023-01-28T14:58:00;101318.56;;;4.04;72.09
71559;BME280;59382;43.852;25.952;2023-01-28T15:00:30;101298.94;;;3.96;71.87
71559;BME280;59382;43.852;25.952;2023-01-28T15:02:57;101317.72;;;4.04;72.42
71559;BME280;59382;43.852;25.952;2023-01-28T15:05:28;101310.25;;;3.90;72.27
71559;BME280;59382;43.852;25.952;2023-01-28T15:07:55;101322.16;;;3.95;72.08
71559;BME280;59382;43.852;25.952;2023-01-28T15:10:30;101330.38;;;4.02;72.08
71559;BME280;59382;43.852;25.952;2023-01-28T15:13:09;101322.75;;;4.07;72.13
71559;BME280;59382;43.852;25.952;2023-01-28T15:15:40;101332.50;;;4.16;71.90